Finnmarken — LDBE — position and weather

sailwx.info

Track history (hours):
 
Tides and Currents Weather Stations Pressure Air Temp Water Temp Dewpoint Dewpoint Depression Visibility Wind Speed Wind Dir Waves Ship Positions

Finnmarken

Last reported at 2018-Feb-24 18:00 UTC. Time now 2018-Feb-24 18:24 UTC.
Position N 69°42' E 019°03'.

Length 139 m; draft 5.2 m.

Type: Passenger vessel. MMSI: 259210000.

Date/timePositionNaut miles runAvg speedWind from/ knotsBaromVisibWave heightAir tempDewpointWater temp
2018-Feb-24 18:00N 69°42' E 019°03'4 7.3
2018-Feb-24 17:30N 69°39' E 018°58'0 0.0
2018-Feb-24 16:58N 69°39' E 018°58'0 0.0
2018-Feb-24 16:28N 69°39' E 018°58'0 0.0
2018-Feb-24 15:58N 69°39' E 018°58'0 0.0
2018-Feb-24 15:28N 69°39' E 018°58'0 0.0
2018-Feb-24 14:58N 69°39' E 018°58'0 0.0
2018-Feb-24 14:28N 69°39' E 018°58'0 0.0
2018-Feb-24 13:58N 69°39' E 018°58'0 0.0
2018-Feb-24 13:29N 69°39' E 018°58'3 5.7
2018-Feb-24 13:00N 69°37' E 018°54'714.3
2018-Feb-24 12:29N 69°32' E 018°36'714.6
2018-Feb-24 12:00N 69°30' E 018°17'612.7
2018-Feb-24 11:30N 69°25' E 018°07'713.4
2018-Feb-24 11:00N 69°19' E 017°59'510.1
2018-Feb-24 10:30N 69°14' E 017°58'0 0.0
2018-Feb-24 09:59N 69°14' E 017°58'4 7.8
2018-Feb-24 09:30N 69°10' E 017°57'714.2
2018-Feb-24 09:00N 69°07' E 017°39'713.8
2018-Feb-24 08:30N 69°04' E 017°22'714.0
2018-Feb-24 08:00N 68°58' E 017°10'714.3
2018-Feb-24 07:30N 68°54' E 016°54'714.5
2018-Feb-24 07:01N 68°50' E 016°38'2 4.9
2018-Feb-24 06:30N 68°48' E 016°33'0 0.0
2018-Feb-24 06:00N 68°48' E 016°33'1 2.1
2018-Feb-24 05:29N 68°49' E 016°35'611.5
2018-Feb-24 05:00N 68°53' E 016°25'713.6
2018-Feb-24 04:30N 68°57' E 016°10'713.9
2018-Feb-24 04:00N 68°59' E 015°51'5 9.3
2018-Feb-24 03:30N 68°58' E 015°39'3 6.5
2018-Feb-24 03:00N 68°55' E 015°35'814.3
2018-Feb-24 02:28N 68°48' E 015°26'613.1
2018-Feb-24 02:00N 68°42' E 015°25'0 0.7
2018-Feb-24 01:30N 68°42' E 015°26'713.2
2018-Feb-24 01:00N 68°36' E 015°15'713.8
2018-Feb-24 00:30N 68°35' E 014°57'1 1.1
2018-Feb-24 00:00N 68°35' E 014°55'612.7
2018-Feb-23 23:30N 68°31' E 015°09'611.3
2018-Feb-23 23:00N 68°25' E 015°08'713.5
2018-Feb-23 22:30N 68°19' E 014°59'713.7
2018-Feb-23 22:00N 68°13' E 014°52'712.8
2018-Feb-23 21:30N 68°13' E 014°34'1 2.0
2018-Feb-23 21:00N 68°14' E 014°34'0 0.0
2018-Feb-23 20:30N 68°14' E 014°34'2 5.0
2018-Feb-23 20:00N 68°12' E 014°30'814.5
2018-Feb-23 19:29N 68°08' E 014°13'714.8
2018-Feb-23 19:00N 68°06' E 013°54'2 3.1
2018-Feb-23 18:30N 68°07' E 013°50'3 6.5
2018-Feb-23 18:00N 68°04' E 013°52'814.6
2018-Feb-23 17:29N 67°57' E 013°59'714.6
2018-Feb-23 17:01N 67°51' E 014°05'714.1
2018-Feb-23 16:31N 67°44' E 014°11'714.3
2018-Feb-23 16:00N 67°37' E 014°17'814.6
2018-Feb-23 15:29N 67°30' E 014°22'714.3
2018-Feb-23 15:01N 67°23' E 014°25'612.2
2018-Feb-23 14:30N 67°17' E 014°22'1 1.4
2018-Feb-23 13:58N 67°17' E 014°24'0 0.0
2018-Feb-23 13:28N 67°17' E 014°24'0 0.0
2018-Feb-23 12:58N 67°17' E 014°24'0 0.0
2018-Feb-23 12:28N 67°17' E 014°24'0 0.0
2018-Feb-23 11:58N 67°17' E 014°24'0 0.0
2018-Feb-23 11:30N 67°17' E 014°24'511.0
2018-Feb-23 11:00N 67°14' E 014°13'815.2
2018-Feb-23 10:30N 67°08' E 014°01'815.3
2018-Feb-23 10:00N 67°02' E 013°47'714.9
2018-Feb-23 09:30N 66°58' E 013°32'5 9.5
2018-Feb-23 09:00N 66°54' E 013°37'3 5.1
2018-Feb-23 08:30N 66°52' E 013°42'4 6.6
2018-Feb-23 07:58N 66°49' E 013°36'714.6
2018-Feb-23 07:30N 66°47' E 013°20'714.3
2018-Feb-23 07:00N 66°41' E 013°09'714.6
2018-Feb-23 06:30N 66°34' E 013°05'611.6
2018-Feb-23 06:00N 66°29' E 012°59'815.2
2018-Feb-23 05:30N 66°22' E 012°58'815.2
2018-Feb-23 04:59N 66°14' E 012°54'3 7.0
2018-Feb-23 04:30N 66°12' E 013°00'5 9.2
2018-Feb-23 04:00N 66°09' E 012°52'815.4
2018-Feb-23 03:30N 66°03' E 012°39'2 4.0
2018-Feb-23 03:01N 66°01' E 012°38'1 2.0
2018-Feb-23 02:30N 66°02' E 012°36'814.9
2018-Feb-23 02:00N 65°56' E 012°24'815.1
2018-Feb-23 01:30N 65°48' E 012°21'714.9
2018-Feb-23 01:00N 65°41' E 012°16'815.1
2018-Feb-23 00:29N 65°33' E 012°13'510.0
2018-Feb-22 23:59N 65°29' E 012°13'0 0.5
2018-Feb-22 23:31N 65°28' E 012°12'713.1
2018-Feb-22 23:00N 65°22' E 012°05'815.0
2018-Feb-22 22:30N 65°16' E 011°56'714.9
2018-Feb-22 22:01N 65°09' E 011°50'714.9
2018-Feb-22 21:30N 65°02' E 011°43'714.2
2018-Feb-22 21:00N 64°57' E 011°31'714.8
2018-Feb-22 20:30N 64°53' E 011°17'1 3.0
2018-Feb-22 20:00N 64°52' E 011°14'1 2.0
2018-Feb-22 19:30N 64°51' E 011°13'714.8
2018-Feb-22 19:00N 64°45' E 011°01'814.9
2018-Feb-22 18:30N 64°41' E 010°47'714.7
2018-Feb-22 18:00N 64°35' E 010°36'714.6
2018-Feb-22 17:30N 64°29' E 010°26'714.4
2018-Feb-22 17:00N 64°22' E 010°28'713.9
2018-Feb-22 16:30N 64°16' E 010°20'714.7
2018-Feb-22 16:00N 64°10' E 010°08'713.8
2018-Feb-22 15:30N 64°04' E 010°01'611.4
2018-Feb-22 15:00N 63°59' E 009°56'814.6
2018-Feb-22 14:29N 63°53' E 009°45'715.2
2018-Feb-22 14:01N 63°48' E 009°34'714.8
2018-Feb-22 13:30N 63°41' E 009°29'5 9.4
2018-Feb-22 13:00N 63°39' E 009°39'611.8
2018-Feb-22 12:30N 63°35' E 009°50'714.7
2018-Feb-22 12:01N 63°29' E 009°58'815.0
2018-Feb-22 11:30N 63°28' E 010°15'4 8.8
2018-Feb-22 11:01N 63°27' E 010°24'0 0.0
2018-Feb-22 10:25N 63°27' E 010°24'0 0.0
2018-Feb-22 09:55N 63°27' E 010°24'0 0.0
2018-Feb-22 09:25N 63°27' E 010°24'0 0.0
2018-Feb-22 08:55N 63°27' E 010°24'0 0.0
2018-Feb-22 08:25N 63°27' E 010°24'0 0.0
2018-Feb-22 07:55N 63°27' E 010°24'0 0.0
2018-Feb-22 07:25N 63°27' E 010°24'0 0.0
2018-Feb-22 06:55N 63°27' E 010°24'0 0.0
2018-Feb-22 06:25N 63°27' E 010°24'0 0.0
2018-Feb-22 05:55N 63°27' E 010°24'0 0.0
2018-Feb-22 05:25N 63°27' E 010°24'0 0.0
2018-Feb-22 05:00N 63°27' E 010°24'2 3.2
2018-Feb-22 04:30N 63°27' E 010°21'611.7
2018-Feb-22 04:00N 63°28' E 010°08'611.1
2018-Feb-22 03:30N 63°29' E 009°56'713.3
2018-Feb-22 03:00N 63°35' E 009°49'510.3
2018-Feb-22 02:30N 63°39' E 009°40'714.6
2018-Feb-22 02:00N 63°35' E 009°26'815.2
2018-Feb-22 01:30N 63°31' E 009°11'815.2
2018-Feb-22 01:00N 63°28' E 008°56'714.7
2018-Feb-22 00:30N 63°25' E 008°40'814.5
2018-Feb-21 23:59N 63°22' E 008°25'714.9
2018-Feb-21 23:30N 63°18' E 008°13'714.9
2018-Feb-21 23:00N 63°14' E 007°59'714.8
2018-Feb-21 22:30N 63°10' E 007°45'3 5.5
2018-Feb-21 22:00N 63°07' E 007°44'0 0.1
2018-Feb-21 21:30N 63°07' E 007°44'0 0.0
2018-Feb-21 21:01N 63°07' E 007°44'4 8.3
2018-Feb-21 20:30N 63°07' E 007°35'714.4
2018-Feb-21 20:00N 63°04' E 007°21'714.6
2018-Feb-21 19:30N 63°01' E 007°06'714.7
2018-Feb-21 19:00N 62°58' E 006°51'713.1
2018-Feb-21 18:30N 62°52' E 006°58'814.7
2018-Feb-21 17:57N 62°43' E 006°58'511.8
2018-Feb-21 17:30N 62°44' E 007°09'0 0.1
2018-Feb-21 17:00N 62°44' E 007°10'0 0.2
2018-Feb-21 16:30N 62°44' E 007°09'713.5
2018-Feb-21 15:59N 62°42' E 006°55'715.0
2018-Feb-21 15:30N 62°39' E 006°40'714.8
2018-Feb-21 15:00N 62°37' E 006°24'714.3
2018-Feb-21 14:29N 62°34' E 006°11'510.9
2018-Feb-21 14:00N 62°29' E 006°09'0 0.0
2018-Feb-21 13:30N 62°29' E 006°09'0 0.0
2018-Feb-21 13:00N 62°29' E 006°09'0 0.0
2018-Feb-21 12:30N 62°29' E 006°09'0 0.0
2018-Feb-21 12:00N 62°29' E 006°09'0 0.0
2018-Feb-21 11:30N 62°29' E 006°09'0 0.0
2018-Feb-21 11:00N 62°29' E 006°09'510.0
2018-Feb-21 10:30N 62°27' E 005°59'713.5
2018-Feb-21 10:00N 62°22' E 005°48'3 5.5
2018-Feb-21 09:29N 62°20' E 005°44'2 3.9
2018-Feb-21 09:00N 62°19' E 005°41'713.8
2018-Feb-21 08:30N 62°18' E 005°26'714.5
2018-Feb-21 08:00N 62°14' E 005°12'612.8
2018-Feb-21 07:30N 62°09' E 005°04'714.1
2018-Feb-21 07:00N 62°02' E 005°09'611.6
2018-Feb-21 06:29N 61°56' E 005°07'0 0.0
2018-Feb-21 06:00N 61°56' E 005°07'4 8.3
2018-Feb-21 05:30N 61°53' E 005°11'4 7.2
2018-Feb-21 05:00N 61°49' E 005°10'715.2
2018-Feb-21 04:30N 61°44' E 004°59'714.9
2018-Feb-21 04:01N 61°37' E 004°59'1 2.4
2018-Feb-21 03:30N 61°36' E 005°01'3 5.1
2018-Feb-21 03:00N 61°34' E 004°59'713.2
2018-Feb-21 02:29N 61°27' E 004°56'714.8
2018-Feb-21 02:00N 61°21' E 004°48'714.7
2018-Feb-21 01:30N 61°14' E 004°43'714.1
2018-Feb-21 01:00N 61°07' E 004°45'714.2
2018-Feb-21 00:30N 61°00' E 004°46'714.9
2018-Feb-21 00:00N 60°53' E 004°46'713.7
2018-Feb-20 23:30N 60°46' E 004°47'815.2
2018-Feb-20 23:00N 60°39' E 004°52'815.7
2018-Feb-20 22:30N 60°31' E 004°57'815.4
2018-Feb-20 22:00N 60°25' E 005°06'612.7
2018-Feb-20 21:30N 60°24' E 005°18'0 0.1
2018-Feb-20 20:58N 60°24' E 005°19'0 0.0
2018-Feb-20 20:28N 60°24' E 005°19'0 0.0
2018-Feb-20 19:58N 60°24' E 005°19'0 0.0
2018-Feb-20 19:28N 60°24' E 005°19'0 0.0
2018-Feb-20 18:58N 60°24' E 005°19'0 0.0
2018-Feb-20 18:28N 60°24' E 005°19'0 0.0
2018-Feb-20 17:58N 60°24' E 005°19'0 0.0
2018-Feb-20 17:28N 60°24' E 005°19'0 0.0
2018-Feb-20 16:58N 60°24' E 005°19'0 0.0
2018-Feb-20 16:28N 60°24' E 005°19'0 0.4
2018-Feb-20 16:00N 60°24' E 005°18'0 0.5
2018-Feb-20 15:29N 60°24' E 005°19'0 0.5
2018-Feb-20 15:00N 60°24' E 005°18'0 0.3
2018-Feb-20 14:30N 60°24' E 005°19'0 0.0
2018-Feb-20 13:58N 60°24' E 005°19'0 0.0
2018-Feb-20 13:30N 60°24' E 005°19'0 0.0
2018-Feb-20 12:59N 60°24' E 005°19'1 1.4
2018-Feb-20 12:30N 60°24' E 005°18'814.9
2018-Feb-20 11:58N 60°31' E 005°09'714.6
2018-Feb-20 11:30N 60°35' E 004°58'816.2
2018-Feb-20 11:00N 60°42' E 004°50'816.5
2018-Feb-20 10:30N 60°50' E 004°45'816.4
2018-Feb-20 10:00N 60°58' E 004°45'815.6
2018-Feb-20 09:30N 61°06' E 004°44'815.6
2018-Feb-20 08:59N 61°14' E 004°43'815.7
2018-Feb-20 08:29N 61°22' E 004°48'715.4
2018-Feb-20 08:00N 61°28' E 004°57'713.8
2018-Feb-20 07:30N 61°35' E 004°57'2 4.9
2018-Feb-20 07:00N 61°36' E 005°01'3 6.6
2018-Feb-20 06:30N 61°39' E 004°59'713.5
2018-Feb-20 06:00N 61°46' E 005°01'815.1
2018-Feb-20 05:30N 61°50' E 005°15'612.5
2018-Feb-20 05:00N 61°55' E 005°07'2 3.3
2018-Feb-20 04:30N 61°56' E 005°07'3 6.0
2018-Feb-20 04:00N 61°59' E 005°09'714.4
2018-Feb-20 03:30N 62°06' E 005°06'613.1
2018-Feb-20 03:00N 62°13' E 005°07'714.8
2018-Feb-20 02:30N 62°17' E 005°20'816.1
2018-Feb-20 02:00N 62°19' E 005°36'4 7.1
2018-Feb-20 01:30N 62°20' E 005°44'5 9.5
2018-Feb-20 01:00N 62°24' E 005°49'714.6
2018-Feb-20 00:30N 62°28' E 006°03'3 5.6
2018-Feb-20 00:00N 62°29' E 006°09'0 0.0
2018-Feb-19 23:30N 62°29' E 006°09'0 0.1
2018-Feb-19 23:00N 62°29' E 006°09'612.0
2018-Feb-19 22:30N 62°34' E 006°13'714.2
2018-Feb-19 22:00N 62°38' E 006°26'815.6
2018-Feb-19 21:30N 62°40' E 006°43'815.7
2018-Feb-19 21:00N 62°42' E 006°59'510.3
2018-Feb-19 20:30N 62°44' E 007°09'0 0.0
2018-Feb-19 19:59N 62°44' E 007°10'3 6.0
2018-Feb-19 19:30N 62°43' E 007°03'610.3
2018-Feb-19 18:57N 62°48' E 006°58'612.9
2018-Feb-19 18:30N 62°54' E 006°53'611.2
2018-Feb-19 18:00N 62°59' E 006°56'714.5
2018-Feb-19 17:31N 63°02' E 007°10'714.5
2018-Feb-19 17:00N 63°04' E 007°25'713.9
2018-Feb-19 16:30N 63°07' E 007°39'2 4.6
2018-Feb-19 16:00N 63°07' E 007°44'0 0.0
2018-Feb-19 15:29N 63°07' E 007°44'2 3.6
2018-Feb-19 15:01N 63°08' E 007°41'714.4
2018-Feb-19 14:31N 63°13' E 007°53'714.8
2018-Feb-19 14:01N 63°16' E 008°07'714.4
2018-Feb-19 13:30N 63°21' E 008°19'815.1
2018-Feb-19 13:00N 63°25' E 008°34'815.3
2018-Feb-19 12:30N 63°27' E 008°50'814.8
2018-Feb-19 11:59N 63°30' E 009°06'816.4
2018-Feb-19 11:30N 63°34' E 009°21'917.4
2018-Feb-19 11:00N 63°39' E 009°38'612.1
2018-Feb-19 10:30N 63°35' E 009°50'714.8
2018-Feb-19 10:01N 63°29' E 009°58'714.6
2018-Feb-19 09:31N 63°28' E 010°14'5 9.6
2018-Feb-19 09:01N 63°27' E 010°24'0 0.0
2018-Feb-19 08:26N 63°27' E 010°24'0 0.0
2018-Feb-19 07:56N 63°27' E 010°24'0 0.0
2018-Feb-19 07:26N 63°27' E 010°24'0 0.0
2018-Feb-19 06:56N 63°27' E 010°24'0 0.0
2018-Feb-19 06:26N 63°27' E 010°24'0 0.0
2018-Feb-19 05:56N 63°27' E 010°24'0 0.5
2018-Feb-19 05:30N 63°27' E 010°24'714.4
2018-Feb-19 05:00N 63°28' E 010°08'713.7
2018-Feb-19 04:30N 63°31' E 009°54'714.3
2018-Feb-19 04:00N 63°37' E 009°47'510.7
2018-Feb-19 03:30N 63°38' E 009°35'510.4
2018-Feb-19 02:59N 63°42' E 009°26'613.3
2018-Feb-19 02:30N 63°47' E 009°20'714.0
2018-Feb-19 02:00N 63°54' E 009°24'714.3
2018-Feb-19 01:30N 64°01' E 009°31'714.4
2018-Feb-19 01:00N 64°07' E 009°38'714.8
2018-Feb-19 00:30N 64°14' E 009°45'714.0
2018-Feb-19 00:00N 64°19' E 009°56'814.6
2018-Feb-18 23:28N 64°25' E 010°08'714.7
2018-Feb-18 23:00N 64°29' E 010°20'714.1
2018-Feb-18 22:29N 64°35' E 010°32'714.3
2018-Feb-18 21:59N 64°40' E 010°43'714.4
2018-Feb-18 21:30N 64°44' E 010°56'714.5
2018-Feb-18 21:00N 64°49' E 011°08'4 7.5
2018-Feb-18 20:30N 64°52' E 011°14'0 0.0
2018-Feb-18 20:00N 64°52' E 011°14'0 0.1
2018-Feb-18 19:30N 64°52' E 011°14'510.2
2018-Feb-18 19:00N 64°56' E 011°22'714.0
2018-Feb-18 18:30N 65°01' E 011°33'714.8
2018-Feb-18 18:00N 65°05' E 011°47'815.1
2018-Feb-18 17:30N 65°13' E 011°53'715.1
2018-Feb-18 17:00N 65°19' E 012°01'610.8
2018-Feb-18 16:29N 65°24' E 012°08'510.2
2018-Feb-18 16:00N 65°29' E 012°13'0 0.0
2018-Feb-18 15:30N 65°29' E 012°13'0 0.0
2018-Feb-18 15:00N 65°29' E 012°13'1 2.9
2018-Feb-18 14:30N 65°30' E 012°12'815.4
2018-Feb-18 14:00N 65°37' E 012°14'815.5
2018-Feb-18 13:30N 65°45' E 012°18'715.0
2018-Feb-18 13:00N 65°52' E 012°22'713.5
2018-Feb-18 12:30N 65°59' E 012°28'5 9.6
2018-Feb-18 11:59N 66°01' E 012°38'0 0.0
2018-Feb-18 11:29N 66°01' E 012°38'4 7.3
2018-Feb-18 11:00N 66°05' E 012°41'815.2
2018-Feb-18 10:30N 66°10' E 012°55'3 6.5
2018-Feb-18 10:00N 66°12' E 013°00'510.1
2018-Feb-18 09:30N 66°17' E 012°55'714.1
2018-Feb-18 09:01N 66°23' E 012°58'714.2
2018-Feb-18 08:30N 66°31' E 012°58'713.3
2018-Feb-18 08:00N 66°37' E 012°59'713.1
2018-Feb-18 07:30N 66°42' E 013°10'714.1
2018-Feb-18 07:00N 66°48' E 013°22'714.7
2018-Feb-18 06:30N 66°50' E 013°40'3 5.0
2018-Feb-18 05:59N 66°52' E 013°41'612.3
2018-Feb-18 05:30N 66°56' E 013°29'713.6
2018-Feb-18 05:00N 67°01' E 013°42'714.7
2018-Feb-18 04:31N 67°05' E 013°56'714.0
2018-Feb-18 04:01N 67°11' E 014°06'714.8
2018-Feb-18 03:31N 67°16' E 014°19'2 3.7
2018-Feb-18 02:59N 67°17' E 014°24'0 0.0
2018-Feb-18 02:29N 67°17' E 014°24'0 0.0
2018-Feb-18 01:59N 67°17' E 014°24'0 0.1
2018-Feb-18 01:31N 67°17' E 014°24'4 8.0
2018-Feb-18 01:00N 67°21' E 014°24'714.3
2018-Feb-18 00:30N 67°28' E 014°23'815.4
2018-Feb-18 00:00N 67°36' E 014°18'814.9
2018-Feb-17 23:30N 67°43' E 014°12'714.5
2018-Feb-17 23:00N 67°50' E 014°05'714.0
2018-Feb-17 22:30N 67°57' E 013°59'714.2
2018-Feb-17 21:59N 68°03' E 013°53'4 8.0
2018-Feb-17 21:31N 68°07' E 013°50'0 0.7
2018-Feb-17 21:00N 68°07' E 013°50'713.6
2018-Feb-17 20:29N 68°07' E 014°09'714.4
2018-Feb-17 20:00N 68°11' E 014°24'5 9.3
2018-Feb-17 19:30N 68°14' E 014°34'0 0.0
2018-Feb-17 18:58N 68°14' E 014°34'0 0.0
2018-Feb-17 18:28N 68°14' E 014°34'0 0.0
2018-Feb-17 17:58N 68°14' E 014°34'0 0.0
2018-Feb-17 17:28N 68°14' E 014°34'0 0.0
2018-Feb-17 16:58N 68°14' E 014°34'3 6.6
2018-Feb-17 16:29N 68°14' E 014°43'611.5
2018-Feb-17 16:00N 68°16' E 014°57'715.1
2018-Feb-17 15:30N 68°23' E 015°04'713.9
2018-Feb-17 15:00N 68°29' E 015°13'714.4
2018-Feb-17 14:30N 68°34' E 015°00'2 3.7
2018-Feb-17 13:58N 68°34' E 014°55'0 0.0
2018-Feb-17 13:28N 68°34' E 014°55'2 4.5
2018-Feb-17 13:00N 68°34' E 015°00'714.0
2018-Feb-17 12:30N 68°38' E 015°17'510.1
2018-Feb-17 12:00N 68°42' E 015°25'0 0.0
2018-Feb-17 11:30N 68°42' E 015°25'4 7.8
2018-Feb-17 11:00N 68°46' E 015°26'714.5
2018-Feb-17 10:30N 68°53' E 015°32'611.8
2018-Feb-17 10:00N 68°58' E 015°39'0 0.2
2018-Feb-17 09:30N 68°58' E 015°39'510.3
2018-Feb-17 09:00N 68°59' E 015°53'714.7
2018-Feb-17 08:29N 68°56' E 016°12'714.8
2018-Feb-17 08:00N 68°52' E 016°29'5 9.2
2018-Feb-17 07:29N 68°48' E 016°33'0 0.0
2018-Feb-17 07:00N 68°48' E 016°33'4 8.1
2018-Feb-17 06:29N 68°50' E 016°42'714.7
2018-Feb-17 06:00N 68°55' E 016°58'714.3
2018-Feb-17 05:30N 68°59' E 017°13'714.2
2018-Feb-17 04:59N 69°06' E 017°25'714.8
2018-Feb-17 04:30N 69°08' E 017°43'714.6
2018-Feb-17 04:00N 69°12' E 018°01'2 4.4
2018-Feb-17 03:30N 69°14' E 017°58'3 5.0
2018-Feb-17 03:00N 69°16' E 017°58'713.2
2018-Feb-17 02:30N 69°22' E 018°05'713.5
2018-Feb-17 02:00N 69°29' E 018°10'714.6
2018-Feb-17 01:30N 69°32' E 018°30'714.3
2018-Feb-17 01:00N 69°34' E 018°48'611.1
2018-Feb-17 00:30N 69°39' E 018°58'0 0.0
2018-Feb-17 00:00N 69°39' E 018°58'0 0.0
2018-Feb-16 23:30N 69°39' E 018°58'0 0.0
2018-Feb-16 23:00N 69°39' E 018°58'0 0.4
2018-Feb-16 22:30N 69°39' E 018°58'613.0
2018-Feb-16 22:00N 69°45' E 019°04'714.4
2018-Feb-16 21:30N 69°48' E 019°23'714.9
2018-Feb-16 21:00N 69°51' E 019°43'715.0
2018-Feb-16 20:30N 69°55' E 020°00'714.9
2018-Feb-16 20:00N 69°60' E 020°18'815.0
2018-Feb-16 19:30N 70°02' E 020°39'814.9
2018-Feb-16 19:00N 70°04' E 021°01'2 3.6
2018-Feb-16 18:30N 70°02' E 020°59'3 5.4
2018-Feb-16 18:00N 70°04' E 021°03'714.7
2018-Feb-16 17:30N 70°12' E 021°07'714.1
2018-Feb-16 17:00N 70°17' E 021°21'814.9
2018-Feb-16 16:30N 70°22' E 021°37'612.1
2018-Feb-16 15:59N 70°22' E 021°55'714.8
2018-Feb-16 15:29N 70°18' E 022°14'5 9.7
2018-Feb-16 15:00N 70°14' E 022°21'4 7.5
2018-Feb-16 14:31N 70°18' E 022°18'612.8
2018-Feb-16 14:01N 70°24' E 022°26'714.1
2018-Feb-16 13:30N 70°28' E 022°43'713.9
2018-Feb-16 13:00N 70°32' E 023°01'714.0
2018-Feb-16 12:30N 70°37' E 023°16'713.7
2018-Feb-16 12:00N 70°40' E 023°35'2 4.2
2018-Feb-16 11:30N 70°40' E 023°41'0 0.0
2018-Feb-16 11:01N 70°40' E 023°41'0 0.0
2018-Feb-16 10:30N 70°40' E 023°41'0 0.0
2018-Feb-16 10:01N 70°40' E 023°41'3 6.0
2018-Feb-16 09:30N 70°40' E 023°32'713.4
2018-Feb-16 09:00N 70°46' E 023°40'814.9
2018-Feb-16 08:29N 70°51' E 023°57'715.1
2018-Feb-16 08:00N 70°56' E 024°13'814.9
2018-Feb-16 07:29N 71°01' E 024°31'4 7.5
2018-Feb-16 06:59N 70°60' E 024°41'4 8.2
2018-Feb-16 06:30N 70°60' E 024°54'815.4
2018-Feb-16 06:00N 70°59' E 025°17'715.1
2018-Feb-16 05:30N 70°56' E 025°37'713.8
2018-Feb-16 05:00N 70°59' E 025°57'1 1.0
2018-Feb-16 04:29N 70°59' E 025°58'510.2
2018-Feb-16 04:00N 70°58' E 026°13'815.0
2018-Feb-16 03:29N 70°59' E 026°36'714.8
2018-Feb-16 03:00N 70°59' E 026°59'714.0
2018-Feb-16 02:30N 70°57' E 027°19'2 3.7
2018-Feb-16 02:00N 70°59' E 027°15'611.5
2018-Feb-16 01:30N 71°04' E 027°19'714.7
2018-Feb-16 01:00N 71°09' E 027°37'6 4.4
2018-Feb-15 23:32N 71°04' E 027°52'115.2
2018-Feb-15 23:30N 71°05' E 027°53'815.1
2018-Feb-15 23:00N 71°07' E 028°15'816.1
2018-Feb-15 22:30N 71°02' E 028°34'816.2
2018-Feb-15 22:00N 70°57' E 028°54'714.1
2018-Feb-15 21:30N 70°52' E 029°08'0 0.7
2018-Feb-15 21:00N 70°52' E 029°07'714.2
2018-Feb-15 20:30N 70°49' E 029°27'816.2
2018-Feb-15 19:59N 70°45' E 029°48'713.4
2018-Feb-15 19:28N 70°38' E 029°44'0 0.0
2018-Feb-15 19:00N 70°38' E 029°44'2 4.1
2018-Feb-15 18:30N 70°39' E 029°48'713.4
2018-Feb-15 18:00N 70°43' E 030°04'714.1
2018-Feb-15 17:30N 70°40' E 030°22'714.3
2018-Feb-15 17:00N 70°35' E 030°37'714.1
2018-Feb-15 16:30N 70°30' E 030°52'713.9
2018-Feb-15 16:00N 70°24' E 031°06'2 3.5
2018-Feb-15 15:30N 70°23' E 031°06'0 0.0
2018-Feb-15 15:00N 70°23' E 031°06'3 5.5
2018-Feb-15 14:29N 70°20' E 031°08'714.4
2018-Feb-15 14:00N 70°13' E 030°57'814.8
2018-Feb-15 13:28N 70°08' E 030°43'714.8
2018-Feb-15 13:00N 70°02' E 030°30'714.9
2018-Feb-15 12:30N 69°56' E 030°16'714.4
2018-Feb-15 12:00N 69°50' E 030°07'612.1
2018-Feb-15 11:30N 69°44' E 030°04'0 0.0
2018-Feb-15 10:58N 69°44' E 030°04'0 0.0
2018-Feb-15 10:28N 69°44' E 030°04'0 0.0
2018-Feb-15 09:58N 69°44' E 030°04'0 0.0
2018-Feb-15 09:28N 69°44' E 030°04'0 0.0
2018-Feb-15 08:58N 69°44' E 030°04'0 0.0
2018-Feb-15 08:28N 69°44' E 030°04'0 0.1
2018-Feb-15 08:01N 69°44' E 030°04'712.5
2018-Feb-15 07:29N 69°50' E 030°05'714.3
2018-Feb-15 07:00N 69°56' E 029°55'714.7
2018-Feb-15 06:30N 70°03' E 029°44'2 3.0
2018-Feb-15 05:58N 70°04' E 029°44'0 0.1
2018-Feb-15 05:30N 70°04' E 029°44'4 7.3
2018-Feb-15 05:00N 70°02' E 029°54'714.2
2018-Feb-15 04:30N 70°04' E 030°14'714.3
2018-Feb-15 03:59N 70°08' E 030°32'714.5
2018-Feb-15 03:30N 70°12' E 030°49'714.2
2018-Feb-15 03:00N 70°17' E 031°05'612.5
2018-Feb-15 02:30N 70°23' E 031°07'2 3.3
2018-Feb-15 02:00N 70°25' E 031°06'714.8
2018-Feb-15 01:30N 70°30' E 030°51'714.7
2018-Feb-15 01:00N 70°35' E 030°35'714.9
2018-Feb-15 00:30N 70°40' E 030°19'713.6
2018-Feb-15 00:00N 70°43' E 030°01'714.4
2018-Feb-14 23:30N 70°38' E 029°45'1 2.9
2018-Feb-14 23:00N 70°39' E 029°48'713.9
2018-Feb-14 22:30N 70°46' E 029°41'816.0
2018-Feb-14 22:00N 70°51' E 029°21'5 9.7
2018-Feb-14 21:30N 70°51' E 029°07'2 4.3
2018-Feb-14 21:00N 70°54' E 029°07'714.1
2018-Feb-14 20:30N 70°58' E 028°50'713.8
2018-Feb-14 20:00N 71°02' E 028°34'713.7
2018-Feb-14 19:30N 71°07' E 028°17'612.7
2018-Feb-14 18:59N 71°06' E 027°58'3 3.5
2018-Feb-14 18:03N 71°04' E 027°50'  
Track history (hours):
 
Tides and Currents Weather Stations Pressure Air Temp Water Temp Dewpoint Dewpoint Depression Visibility Wind Speed Wind Dir Waves Ship Positions

Finnmarken

Last reported at 2018-Feb-24 18:00 UTC. Time now 2018-Feb-24 18:24 UTC.
Position N 69°42' E 019°03'.

Length 139 m; draft 5.2 m.

Type: Passenger vessel. MMSI: 259210000.

Date/timePositionNaut miles runAvg speedWind from/ knotsBaromVisibWave heightAir tempDewpointWater temp
2018-Feb-24 18:00N 69°42' E 019°03'4 7.3
2018-Feb-24 17:30N 69°39' E 018°58'0 0.0
2018-Feb-24 16:58N 69°39' E 018°58'0 0.0
2018-Feb-24 16:28N 69°39' E 018°58'0 0.0
2018-Feb-24 15:58N 69°39' E 018°58'0 0.0
2018-Feb-24 15:28N 69°39' E 018°58'0 0.0
2018-Feb-24 14:58N 69°39' E 018°58'0 0.0
2018-Feb-24 14:28N 69°39' E 018°58'0 0.0
2018-Feb-24 13:58N 69°39' E 018°58'0 0.0
2018-Feb-24 13:29N 69°39' E 018°58'3 5.7
2018-Feb-24 13:00N 69°37' E 018°54'714.3
2018-Feb-24 12:29N 69°32' E 018°36'714.6
2018-Feb-24 12:00N 69°30' E 018°17'612.7
2018-Feb-24 11:30N 69°25' E 018°07'713.4
2018-Feb-24 11:00N 69°19' E 017°59'510.1
2018-Feb-24 10:30N 69°14' E 017°58'0 0.0
2018-Feb-24 09:59N 69°14' E 017°58'4 7.8
2018-Feb-24 09:30N 69°10' E 017°57'714.2
2018-Feb-24 09:00N 69°07' E 017°39'713.8
2018-Feb-24 08:30N 69°04' E 017°22'714.0
2018-Feb-24 08:00N 68°58' E 017°10'714.3
2018-Feb-24 07:30N 68°54' E 016°54'714.5
2018-Feb-24 07:01N 68°50' E 016°38'2 4.9
2018-Feb-24 06:30N 68°48' E 016°33'0 0.0
2018-Feb-24 06:00N 68°48' E 016°33'1 2.1
2018-Feb-24 05:29N 68°49' E 016°35'611.5
2018-Feb-24 05:00N 68°53' E 016°25'713.6
2018-Feb-24 04:30N 68°57' E 016°10'713.9
2018-Feb-24 04:00N 68°59' E 015°51'5 9.3
2018-Feb-24 03:30N 68°58' E 015°39'3 6.5
2018-Feb-24 03:00N 68°55' E 015°35'814.3
2018-Feb-24 02:28N 68°48' E 015°26'613.1
2018-Feb-24 02:00N 68°42' E 015°25'0 0.7
2018-Feb-24 01:30N 68°42' E 015°26'713.2
2018-Feb-24 01:00N 68°36' E 015°15'713.8
2018-Feb-24 00:30N 68°35' E 014°57'1 1.1
2018-Feb-24 00:00N 68°35' E 014°55'612.7
2018-Feb-23 23:30N 68°31' E 015°09'611.3
2018-Feb-23 23:00N 68°25' E 015°08'713.5
2018-Feb-23 22:30N 68°19' E 014°59'713.7
2018-Feb-23 22:00N 68°13' E 014°52'712.8
2018-Feb-23 21:30N 68°13' E 014°34'1 2.0
2018-Feb-23 21:00N 68°14' E 014°34'0 0.0
2018-Feb-23 20:30N 68°14' E 014°34'2 5.0
2018-Feb-23 20:00N 68°12' E 014°30'814.5
2018-Feb-23 19:29N 68°08' E 014°13'714.8
2018-Feb-23 19:00N 68°06' E 013°54'2 3.1
2018-Feb-23 18:30N 68°07' E 013°50'3 6.5
2018-Feb-23 18:00N 68°04' E 013°52'814.6
2018-Feb-23 17:29N 67°57' E 013°59'714.6
2018-Feb-23 17:01N 67°51' E 014°05'714.1
2018-Feb-23 16:31N 67°44' E 014°11'714.3
2018-Feb-23 16:00N 67°37' E 014°17'814.6
2018-Feb-23 15:29N 67°30' E 014°22'714.3
2018-Feb-23 15:01N 67°23' E 014°25'612.2
2018-Feb-23 14:30N 67°17' E 014°22'1 1.4
2018-Feb-23 13:58N 67°17' E 014°24'0 0.0
2018-Feb-23 13:28N 67°17' E 014°24'0 0.0
2018-Feb-23 12:58N 67°17' E 014°24'0 0.0
2018-Feb-23 12:28N 67°17' E 014°24'0 0.0
2018-Feb-23 11:58N 67°17' E 014°24'0 0.0
2018-Feb-23 11:30N 67°17' E 014°24'511.0
2018-Feb-23 11:00N 67°14' E 014°13'815.2
2018-Feb-23 10:30N 67°08' E 014°01'815.3
2018-Feb-23 10:00N 67°02' E 013°47'714.9
2018-Feb-23 09:30N 66°58' E 013°32'5 9.5
2018-Feb-23 09:00N 66°54' E 013°37'3 5.1
2018-Feb-23 08:30N 66°52' E 013°42'4 6.6
2018-Feb-23 07:58N 66°49' E 013°36'714.6
2018-Feb-23 07:30N 66°47' E 013°20'714.3
2018-Feb-23 07:00N 66°41' E 013°09'714.6
2018-Feb-23 06:30N 66°34' E 013°05'611.6
2018-Feb-23 06:00N 66°29' E 012°59'815.2
2018-Feb-23 05:30N 66°22' E 012°58'815.2
2018-Feb-23 04:59N 66°14' E 012°54'3 7.0
2018-Feb-23 04:30N 66°12' E 013°00'5 9.2
2018-Feb-23 04:00N 66°09' E 012°52'815.4
2018-Feb-23 03:30N 66°03' E 012°39'2 4.0
2018-Feb-23 03:01N 66°01' E 012°38'1 2.0
2018-Feb-23 02:30N 66°02' E 012°36'814.9
2018-Feb-23 02:00N 65°56' E 012°24'815.1
2018-Feb-23 01:30N 65°48' E 012°21'714.9
2018-Feb-23 01:00N 65°41' E 012°16'815.1
2018-Feb-23 00:29N 65°33' E 012°13'510.0
2018-Feb-22 23:59N 65°29' E 012°13'0 0.5
2018-Feb-22 23:31N 65°28' E 012°12'713.1
2018-Feb-22 23:00N 65°22' E 012°05'815.0
2018-Feb-22 22:30N 65°16' E 011°56'714.9
2018-Feb-22 22:01N 65°09' E 011°50'714.9
2018-Feb-22 21:30N 65°02' E 011°43'714.2
2018-Feb-22 21:00N 64°57' E 011°31'714.8
2018-Feb-22 20:30N 64°53' E 011°17'1 3.0
2018-Feb-22 20:00N 64°52' E 011°14'1 2.0
2018-Feb-22 19:30N 64°51' E 011°13'714.8
2018-Feb-22 19:00N 64°45' E 011°01'814.9
2018-Feb-22 18:30N 64°41' E 010°47'714.7
2018-Feb-22 18:00N 64°35' E 010°36'714.6
2018-Feb-22 17:30N 64°29' E 010°26'714.4
2018-Feb-22 17:00N 64°22' E 010°28'713.9
2018-Feb-22 16:30N 64°16' E 010°20'714.7
2018-Feb-22 16:00N 64°10' E 010°08'713.8
2018-Feb-22 15:30N 64°04' E 010°01'611.4
2018-Feb-22 15:00N 63°59' E 009°56'814.6
2018-Feb-22 14:29N 63°53' E 009°45'715.2
2018-Feb-22 14:01N 63°48' E 009°34'714.8
2018-Feb-22 13:30N 63°41' E 009°29'5 9.4
2018-Feb-22 13:00N 63°39' E 009°39'611.8
2018-Feb-22 12:30N 63°35' E 009°50'714.7
2018-Feb-22 12:01N 63°29' E 009°58'815.0
2018-Feb-22 11:30N 63°28' E 010°15'4 8.8
2018-Feb-22 11:01N 63°27' E 010°24'0 0.0
2018-Feb-22 10:25N 63°27' E 010°24'0 0.0
2018-Feb-22 09:55N 63°27' E 010°24'0 0.0
2018-Feb-22 09:25N 63°27' E 010°24'0 0.0
2018-Feb-22 08:55N 63°27' E 010°24'0 0.0
2018-Feb-22 08:25N 63°27' E 010°24'0 0.0
2018-Feb-22 07:55N 63°27' E 010°24'0 0.0
2018-Feb-22 07:25N 63°27' E 010°24'0 0.0
2018-Feb-22 06:55N 63°27' E 010°24'0 0.0
2018-Feb-22 06:25N 63°27' E 010°24'0 0.0
2018-Feb-22 05:55N 63°27' E 010°24'0 0.0
2018-Feb-22 05:25N 63°27' E 010°24'0 0.0
2018-Feb-22 05:00N 63°27' E 010°24'2 3.2
2018-Feb-22 04:30N 63°27' E 010°21'611.7
2018-Feb-22 04:00N 63°28' E 010°08'611.1
2018-Feb-22 03:30N 63°29' E 009°56'713.3
2018-Feb-22 03:00N 63°35' E 009°49'510.3
2018-Feb-22 02:30N 63°39' E 009°40'714.6
2018-Feb-22 02:00N 63°35' E 009°26'815.2
2018-Feb-22 01:30N 63°31' E 009°11'815.2
2018-Feb-22 01:00N 63°28' E 008°56'714.7
2018-Feb-22 00:30N 63°25' E 008°40'814.5
2018-Feb-21 23:59N 63°22' E 008°25'714.9
2018-Feb-21 23:30N 63°18' E 008°13'714.9
2018-Feb-21 23:00N 63°14' E 007°59'714.8
2018-Feb-21 22:30N 63°10' E 007°45'3 5.5
2018-Feb-21 22:00N 63°07' E 007°44'0 0.1
2018-Feb-21 21:30N 63°07' E 007°44'0 0.0
2018-Feb-21 21:01N 63°07' E 007°44'4 8.3
2018-Feb-21 20:30N 63°07' E 007°35'714.4
2018-Feb-21 20:00N 63°04' E 007°21'714.6
2018-Feb-21 19:30N 63°01' E 007°06'714.7
2018-Feb-21 19:00N 62°58' E 006°51'713.1
2018-Feb-21 18:30N 62°52' E 006°58'814.7
2018-Feb-21 17:57N 62°43' E 006°58'511.8
2018-Feb-21 17:30N 62°44' E 007°09'0 0.1
2018-Feb-21 17:00N 62°44' E 007°10'0 0.2
2018-Feb-21 16:30N 62°44' E 007°09'713.5
2018-Feb-21 15:59N 62°42' E 006°55'715.0
2018-Feb-21 15:30N 62°39' E 006°40'714.8
2018-Feb-21 15:00N 62°37' E 006°24'714.3
2018-Feb-21 14:29N 62°34' E 006°11'510.9
2018-Feb-21 14:00N 62°29' E 006°09'0 0.0
2018-Feb-21 13:30N 62°29' E 006°09'0 0.0
2018-Feb-21 13:00N 62°29' E 006°09'0 0.0
2018-Feb-21 12:30N 62°29' E 006°09'0 0.0
2018-Feb-21 12:00N 62°29' E 006°09'0 0.0
2018-Feb-21 11:30N 62°29' E 006°09'0 0.0
2018-Feb-21 11:00N 62°29' E 006°09'510.0
2018-Feb-21 10:30N 62°27' E 005°59'713.5
2018-Feb-21 10:00N 62°22' E 005°48'3 5.5
2018-Feb-21 09:29N 62°20' E 005°44'2 3.9
2018-Feb-21 09:00N 62°19' E 005°41'713.8
2018-Feb-21 08:30N 62°18' E 005°26'714.5
2018-Feb-21 08:00N 62°14' E 005°12'612.8
2018-Feb-21 07:30N 62°09' E 005°04'714.1
2018-Feb-21 07:00N 62°02' E 005°09'611.6
2018-Feb-21 06:29N 61°56' E 005°07'0 0.0
2018-Feb-21 06:00N 61°56' E 005°07'4 8.3
2018-Feb-21 05:30N 61°53' E 005°11'4 7.2
2018-Feb-21 05:00N 61°49' E 005°10'715.2
2018-Feb-21 04:30N 61°44' E 004°59'714.9
2018-Feb-21 04:01N 61°37' E 004°59'1 2.4
2018-Feb-21 03:30N 61°36' E 005°01'3 5.1
2018-Feb-21 03:00N 61°34' E 004°59'713.2
2018-Feb-21 02:29N 61°27' E 004°56'714.8
2018-Feb-21 02:00N 61°21' E 004°48'714.7
2018-Feb-21 01:30N 61°14' E 004°43'714.1
2018-Feb-21 01:00N 61°07' E 004°45'714.2
2018-Feb-21 00:30N 61°00' E 004°46'714.9
2018-Feb-21 00:00N 60°53' E 004°46'713.7
2018-Feb-20 23:30N 60°46' E 004°47'815.2
2018-Feb-20 23:00N 60°39' E 004°52'815.7
2018-Feb-20 22:30N 60°31' E 004°57'815.4
2018-Feb-20 22:00N 60°25' E 005°06'612.7
2018-Feb-20 21:30N 60°24' E 005°18'0 0.1
2018-Feb-20 20:58N 60°24' E 005°19'0 0.0
2018-Feb-20 20:28N 60°24' E 005°19'0 0.0
2018-Feb-20 19:58N 60°24' E 005°19'0 0.0
2018-Feb-20 19:28N 60°24' E 005°19'0 0.0
2018-Feb-20 18:58N 60°24' E 005°19'0 0.0
2018-Feb-20 18:28N 60°24' E 005°19'0 0.0
2018-Feb-20 17:58N 60°24' E 005°19'0 0.0
2018-Feb-20 17:28N 60°24' E 005°19'0 0.0
2018-Feb-20 16:58N 60°24' E 005°19'0 0.0
2018-Feb-20 16:28N 60°24' E 005°19'0 0.4
2018-Feb-20 16:00N 60°24' E 005°18'0 0.5
2018-Feb-20 15:29N 60°24' E 005°19'0 0.5
2018-Feb-20 15:00N 60°24' E 005°18'0 0.3
2018-Feb-20 14:30N 60°24' E 005°19'0 0.0
2018-Feb-20 13:58N 60°24' E 005°19'0 0.0
2018-Feb-20 13:30N 60°24' E 005°19'0 0.0
2018-Feb-20 12:59N 60°24' E 005°19'1 1.4
2018-Feb-20 12:30N 60°24' E 005°18'814.9
2018-Feb-20 11:58N 60°31' E 005°09'714.6
2018-Feb-20 11:30N 60°35' E 004°58'816.2
2018-Feb-20 11:00N 60°42' E 004°50'816.5
2018-Feb-20 10:30N 60°50' E 004°45'816.4
2018-Feb-20 10:00N 60°58' E 004°45'815.6
2018-Feb-20 09:30N 61°06' E 004°44'815.6
2018-Feb-20 08:59N 61°14' E 004°43'815.7
2018-Feb-20 08:29N 61°22' E 004°48'715.4
2018-Feb-20 08:00N 61°28' E 004°57'713.8
2018-Feb-20 07:30N 61°35' E 004°57'2 4.9
2018-Feb-20 07:00N 61°36' E 005°01'3 6.6
2018-Feb-20 06:30N 61°39' E 004°59'713.5
2018-Feb-20 06:00N 61°46' E 005°01'815.1
2018-Feb-20 05:30N 61°50' E 005°15'612.5
2018-Feb-20 05:00N 61°55' E 005°07'2 3.3
2018-Feb-20 04:30N 61°56' E 005°07'3 6.0
2018-Feb-20 04:00N 61°59' E 005°09'714.4
2018-Feb-20 03:30N 62°06' E 005°06'613.1
2018-Feb-20 03:00N 62°13' E 005°07'714.8
2018-Feb-20 02:30N 62°17' E 005°20'816.1
2018-Feb-20 02:00N 62°19' E 005°36'4 7.1
2018-Feb-20 01:30N 62°20' E 005°44'5 9.5
2018-Feb-20 01:00N 62°24' E 005°49'714.6
2018-Feb-20 00:30N 62°28' E 006°03'3 5.6
2018-Feb-20 00:00N 62°29' E 006°09'0 0.0
2018-Feb-19 23:30N 62°29' E 006°09'0 0.1
2018-Feb-19 23:00N 62°29' E 006°09'612.0
2018-Feb-19 22:30N 62°34' E 006°13'714.2
2018-Feb-19 22:00N 62°38' E 006°26'815.6
2018-Feb-19 21:30N 62°40' E 006°43'815.7
2018-Feb-19 21:00N 62°42' E 006°59'510.3
2018-Feb-19 20:30N 62°44' E 007°09'0 0.0
2018-Feb-19 19:59N 62°44' E 007°10'3 6.0
2018-Feb-19 19:30N 62°43' E 007°03'610.3
2018-Feb-19 18:57N 62°48' E 006°58'612.9
2018-Feb-19 18:30N 62°54' E 006°53'611.2
2018-Feb-19 18:00N 62°59' E 006°56'714.5
2018-Feb-19 17:31N 63°02' E 007°10'714.5
2018-Feb-19 17:00N 63°04' E 007°25'713.9
2018-Feb-19 16:30N 63°07' E 007°39'2 4.6
2018-Feb-19 16:00N 63°07' E 007°44'0 0.0
2018-Feb-19 15:29N 63°07' E 007°44'2 3.6
2018-Feb-19 15:01N 63°08' E 007°41'714.4
2018-Feb-19 14:31N 63°13' E 007°53'714.8
2018-Feb-19 14:01N 63°16' E 008°07'714.4
2018-Feb-19 13:30N 63°21' E 008°19'815.1
2018-Feb-19 13:00N 63°25' E 008°34'815.3
2018-Feb-19 12:30N 63°27' E 008°50'814.8
2018-Feb-19 11:59N 63°30' E 009°06'816.4
2018-Feb-19 11:30N 63°34' E 009°21'917.4
2018-Feb-19 11:00N 63°39' E 009°38'612.1
2018-Feb-19 10:30N 63°35' E 009°50'714.8
2018-Feb-19 10:01N 63°29' E 009°58'714.6
2018-Feb-19 09:31N 63°28' E 010°14'5 9.6
2018-Feb-19 09:01N 63°27' E 010°24'0 0.0
2018-Feb-19 08:26N 63°27' E 010°24'0 0.0
2018-Feb-19 07:56N 63°27' E 010°24'0 0.0
2018-Feb-19 07:26N 63°27' E 010°24'0 0.0
2018-Feb-19 06:56N 63°27' E 010°24'0 0.0
2018-Feb-19 06:26N 63°27' E 010°24'0 0.0
2018-Feb-19 05:56N 63°27' E 010°24'0 0.5
2018-Feb-19 05:30N 63°27' E 010°24'714.4
2018-Feb-19 05:00N 63°28' E 010°08'713.7
2018-Feb-19 04:30N 63°31' E 009°54'714.3
2018-Feb-19 04:00N 63°37' E 009°47'510.7
2018-Feb-19 03:30N 63°38' E 009°35'510.4
2018-Feb-19 02:59N 63°42' E 009°26'613.3
2018-Feb-19 02:30N 63°47' E 009°20'714.0
2018-Feb-19 02:00N 63°54' E 009°24'714.3
2018-Feb-19 01:30N 64°01' E 009°31'714.4
2018-Feb-19 01:00N 64°07' E 009°38'714.8
2018-Feb-19 00:30N 64°14' E 009°45'714.0
2018-Feb-19 00:00N 64°19' E 009°56'814.6
2018-Feb-18 23:28N 64°25' E 010°08'714.7
2018-Feb-18 23:00N 64°29' E 010°20'714.1
2018-Feb-18 22:29N 64°35' E 010°32'714.3
2018-Feb-18 21:59N 64°40' E 010°43'714.4
2018-Feb-18 21:30N 64°44' E 010°56'714.5
2018-Feb-18 21:00N 64°49' E 011°08'4 7.5
2018-Feb-18 20:30N 64°52' E 011°14'0 0.0
2018-Feb-18 20:00N 64°52' E 011°14'0 0.1
2018-Feb-18 19:30N 64°52' E 011°14'510.2
2018-Feb-18 19:00N 64°56' E 011°22'714.0
2018-Feb-18 18:30N 65°01' E 011°33'714.8
2018-Feb-18 18:00N 65°05' E 011°47'815.1
2018-Feb-18 17:30N 65°13' E 011°53'715.1
2018-Feb-18 17:00N 65°19' E 012°01'610.8
2018-Feb-18 16:29N 65°24' E 012°08'510.2
2018-Feb-18 16:00N 65°29' E 012°13'0 0.0
2018-Feb-18 15:30N 65°29' E 012°13'0 0.0
2018-Feb-18 15:00N 65°29' E 012°13'1 2.9
2018-Feb-18 14:30N 65°30' E 012°12'815.4
2018-Feb-18 14:00N 65°37' E 012°14'815.5
2018-Feb-18 13:30N 65°45' E 012°18'715.0
2018-Feb-18 13:00N 65°52' E 012°22'713.5
2018-Feb-18 12:30N 65°59' E 012°28'5 9.6
2018-Feb-18 11:59N 66°01' E 012°38'0 0.0
2018-Feb-18 11:29N 66°01' E 012°38'4 7.3
2018-Feb-18 11:00N 66°05' E 012°41'815.2
2018-Feb-18 10:30N 66°10' E 012°55'3 6.5
2018-Feb-18 10:00N 66°12' E 013°00'510.1
2018-Feb-18 09:30N 66°17' E 012°55'714.1
2018-Feb-18 09:01N 66°23' E 012°58'714.2
2018-Feb-18 08:30N 66°31' E 012°58'713.3
2018-Feb-18 08:00N 66°37' E 012°59'713.1
2018-Feb-18 07:30N 66°42' E 013°10'714.1
2018-Feb-18 07:00N 66°48' E 013°22'714.7
2018-Feb-18 06:30N 66°50' E 013°40'3 5.0
2018-Feb-18 05:59N 66°52' E 013°41'612.3
2018-Feb-18 05:30N 66°56' E 013°29'713.6
2018-Feb-18 05:00N 67°01' E 013°42'714.7
2018-Feb-18 04:31N 67°05' E 013°56'714.0
2018-Feb-18 04:01N 67°11' E 014°06'714.8
2018-Feb-18 03:31N 67°16' E 014°19'2 3.7
2018-Feb-18 02:59N 67°17' E 014°24'0 0.0
2018-Feb-18 02:29N 67°17' E 014°24'0 0.0
2018-Feb-18 01:59N 67°17' E 014°24'0 0.1
2018-Feb-18 01:31N 67°17' E 014°24'4 8.0
2018-Feb-18 01:00N 67°21' E 014°24'714.3
2018-Feb-18 00:30N 67°28' E 014°23'815.4
2018-Feb-18 00:00N 67°36' E 014°18'814.9
2018-Feb-17 23:30N 67°43' E 014°12'714.5
2018-Feb-17 23:00N 67°50' E 014°05'714.0
2018-Feb-17 22:30N 67°57' E 013°59'714.2
2018-Feb-17 21:59N 68°03' E 013°53'4 8.0
2018-Feb-17 21:31N 68°07' E 013°50'0 0.7
2018-Feb-17 21:00N 68°07' E 013°50'713.6
2018-Feb-17 20:29N 68°07' E 014°09'714.4
2018-Feb-17 20:00N 68°11' E 014°24'5 9.3
2018-Feb-17 19:30N 68°14' E 014°34'0 0.0
2018-Feb-17 18:58N 68°14' E 014°34'0 0.0
2018-Feb-17 18:28N 68°14' E 014°34'0 0.0
2018-Feb-17 17:58N 68°14' E 014°34'0 0.0
2018-Feb-17 17:28N 68°14' E 014°34'0 0.0
2018-Feb-17 16:58N 68°14' E 014°34'3 6.6
2018-Feb-17 16:29N 68°14' E 014°43'611.5
2018-Feb-17 16:00N 68°16' E 014°57'715.1
2018-Feb-17 15:30N 68°23' E 015°04'713.9
2018-Feb-17 15:00N 68°29' E 015°13'714.4
2018-Feb-17 14:30N 68°34' E 015°00'2 3.7
2018-Feb-17 13:58N 68°34' E 014°55'0 0.0
2018-Feb-17 13:28N 68°34' E 014°55'2 4.5
2018-Feb-17 13:00N 68°34' E 015°00'714.0
2018-Feb-17 12:30N 68°38' E 015°17'510.1
2018-Feb-17 12:00N 68°42' E 015°25'0 0.0
2018-Feb-17 11:30N 68°42' E 015°25'4 7.8
2018-Feb-17 11:00N 68°46' E 015°26'714.5
2018-Feb-17 10:30N 68°53' E 015°32'611.8
2018-Feb-17 10:00N 68°58' E 015°39'0 0.2
2018-Feb-17 09:30N 68°58' E 015°39'510.3
2018-Feb-17 09:00N 68°59' E 015°53'714.7
2018-Feb-17 08:29N 68°56' E 016°12'714.8
2018-Feb-17 08:00N 68°52' E 016°29'5 9.2
2018-Feb-17 07:29N 68°48' E 016°33'0 0.0
2018-Feb-17 07:00N 68°48' E 016°33'4 8.1
2018-Feb-17 06:29N 68°50' E 016°42'714.7
2018-Feb-17 06:00N 68°55' E 016°58'714.3
2018-Feb-17 05:30N 68°59' E 017°13'714.2
2018-Feb-17 04:59N 69°06' E 017°25'714.8
2018-Feb-17 04:30N 69°08' E 017°43'714.6
2018-Feb-17 04:00N 69°12' E 018°01'2 4.4
2018-Feb-17 03:30N 69°14' E 017°58'3 5.0
2018-Feb-17 03:00N 69°16' E 017°58'713.2
2018-Feb-17 02:30N 69°22' E 018°05'713.5
2018-Feb-17 02:00N 69°29' E 018°10'714.6
2018-Feb-17 01:30N 69°32' E 018°30'714.3
2018-Feb-17 01:00N 69°34' E 018°48'611.1
2018-Feb-17 00:30N 69°39' E 018°58'0 0.0
2018-Feb-17 00:00N 69°39' E 018°58'0 0.0
2018-Feb-16 23:30N 69°39' E 018°58'0 0.0
2018-Feb-16 23:00N 69°39' E 018°58'0 0.4
2018-Feb-16 22:30N 69°39' E 018°58'613.0
2018-Feb-16 22:00N 69°45' E 019°04'714.4
2018-Feb-16 21:30N 69°48' E 019°23'714.9
2018-Feb-16 21:00N 69°51' E 019°43'715.0
2018-Feb-16 20:30N 69°55' E 020°00'714.9
2018-Feb-16 20:00N 69°60' E 020°18'815.0
2018-Feb-16 19:30N 70°02' E 020°39'814.9
2018-Feb-16 19:00N 70°04' E 021°01'2 3.6
2018-Feb-16 18:30N 70°02' E 020°59'3 5.4
2018-Feb-16 18:00N 70°04' E 021°03'714.7
2018-Feb-16 17:30N 70°12' E 021°07'714.1
2018-Feb-16 17:00N 70°17' E 021°21'814.9
2018-Feb-16 16:30N 70°22' E 021°37'612.1
2018-Feb-16 15:59N 70°22' E 021°55'714.8
2018-Feb-16 15:29N 70°18' E 022°14'5 9.7
2018-Feb-16 15:00N 70°14' E 022°21'4 7.5
2018-Feb-16 14:31N 70°18' E 022°18'612.8
2018-Feb-16 14:01N 70°24' E 022°26'714.1
2018-Feb-16 13:30N 70°28' E 022°43'713.9
2018-Feb-16 13:00N 70°32' E 023°01'714.0
2018-Feb-16 12:30N 70°37' E 023°16'713.7
2018-Feb-16 12:00N 70°40' E 023°35'2 4.2
2018-Feb-16 11:30N 70°40' E 023°41'0 0.0
2018-Feb-16 11:01N 70°40' E 023°41'0 0.0
2018-Feb-16 10:30N 70°40' E 023°41'0 0.0
2018-Feb-16 10:01N 70°40' E 023°41'3 6.0
2018-Feb-16 09:30N 70°40' E 023°32'713.4
2018-Feb-16 09:00N 70°46' E 023°40'814.9
2018-Feb-16 08:29N 70°51' E 023°57'715.1
2018-Feb-16 08:00N 70°56' E 024°13'814.9
2018-Feb-16 07:29N 71°01' E 024°31'4 7.5
2018-Feb-16 06:59N 70°60' E 024°41'4 8.2
2018-Feb-16 06:30N 70°60' E 024°54'815.4
2018-Feb-16 06:00N 70°59' E 025°17'715.1
2018-Feb-16 05:30N 70°56' E 025°37'713.8
2018-Feb-16 05:00N 70°59' E 025°57'1 1.0
2018-Feb-16 04:29N 70°59' E 025°58'510.2
2018-Feb-16 04:00N 70°58' E 026°13'815.0
2018-Feb-16 03:29N 70°59' E 026°36'714.8
2018-Feb-16 03:00N 70°59' E 026°59'714.0
2018-Feb-16 02:30N 70°57' E 027°19'2 3.7
2018-Feb-16 02:00N 70°59' E 027°15'611.5
2018-Feb-16 01:30N 71°04' E 027°19'714.7
2018-Feb-16 01:00N 71°09' E 027°37'6 4.4
2018-Feb-15 23:32N 71°04' E 027°52'115.2
2018-Feb-15 23:30N 71°05' E 027°53'815.1
2018-Feb-15 23:00N 71°07' E 028°15'816.1
2018-Feb-15 22:30N 71°02' E 028°34'816.2
2018-Feb-15 22:00N 70°57' E 028°54'714.1
2018-Feb-15 21:30N 70°52' E 029°08'0 0.7
2018-Feb-15 21:00N 70°52' E 029°07'714.2
2018-Feb-15 20:30N 70°49' E 029°27'816.2
2018-Feb-15 19:59N 70°45' E 029°48'713.4
2018-Feb-15 19:28N 70°38' E 029°44'0 0.0
2018-Feb-15 19:00N 70°38' E 029°44'2 4.1
2018-Feb-15 18:30N 70°39' E 029°48'713.4
2018-Feb-15 18:00N 70°43' E 030°04'714.1
2018-Feb-15 17:30N 70°40' E 030°22'714.3
2018-Feb-15 17:00N 70°35' E 030°37'714.1
2018-Feb-15 16:30N 70°30' E 030°52'713.9
2018-Feb-15 16:00N 70°24' E 031°06'2 3.5
2018-Feb-15 15:30N 70°23' E 031°06'0 0.0
2018-Feb-15 15:00N 70°23' E 031°06'3 5.5
2018-Feb-15 14:29N 70°20' E 031°08'714.4
2018-Feb-15 14:00N 70°13' E 030°57'814.8
2018-Feb-15 13:28N 70°08' E 030°43'714.8
2018-Feb-15 13:00N 70°02' E 030°30'714.9
2018-Feb-15 12:30N 69°56' E 030°16'714.4
2018-Feb-15 12:00N 69°50' E 030°07'612.1
2018-Feb-15 11:30N 69°44' E 030°04'0 0.0
2018-Feb-15 10:58N 69°44' E 030°04'0 0.0
2018-Feb-15 10:28N 69°44' E 030°04'0 0.0
2018-Feb-15 09:58N 69°44' E 030°04'0 0.0
2018-Feb-15 09:28N 69°44' E 030°04'0 0.0
2018-Feb-15 08:58N 69°44' E 030°04'0 0.0
2018-Feb-15 08:28N 69°44' E 030°04'0 0.1
2018-Feb-15 08:01N 69°44' E 030°04'712.5
2018-Feb-15 07:29N 69°50' E 030°05'714.3
2018-Feb-15 07:00N 69°56' E 029°55'714.7
2018-Feb-15 06:30N 70°03' E 029°44'2 3.0
2018-Feb-15 05:58N 70°04' E 029°44'0 0.1
2018-Feb-15 05:30N 70°04' E 029°44'4 7.3
2018-Feb-15 05:00N 70°02' E 029°54'714.2
2018-Feb-15 04:30N 70°04' E 030°14'714.3
2018-Feb-15 03:59N 70°08' E 030°32'714.5
2018-Feb-15 03:30N 70°12' E 030°49'714.2
2018-Feb-15 03:00N 70°17' E 031°05'612.5
2018-Feb-15 02:30N 70°23' E 031°07'2 3.3
2018-Feb-15 02:00N 70°25' E 031°06'714.8
2018-Feb-15 01:30N 70°30' E 030°51'714.7
2018-Feb-15 01:00N 70°35' E 030°35'714.9
2018-Feb-15 00:30N 70°40' E 030°19'713.6
2018-Feb-15 00:00N 70°43' E 030°01'714.4
2018-Feb-14 23:30N 70°38' E 029°45'1 2.9
2018-Feb-14 23:00N 70°39' E 029°48'713.9
2018-Feb-14 22:30N 70°46' E 029°41'816.0
2018-Feb-14 22:00N 70°51' E 029°21'5 9.7
2018-Feb-14 21:30N 70°51' E 029°07'2 4.3
2018-Feb-14 21:00N 70°54' E 029°07'714.1
2018-Feb-14 20:30N 70°58' E 028°50'713.8
2018-Feb-14 20:00N 71°02' E 028°34'713.7
2018-Feb-14 19:30N 71°07' E 028°17'612.7
2018-Feb-14 18:59N 71°06' E 027°58'3 3.5
2018-Feb-14 18:03N 71°04' E 027°50'  

Dump ship's entire track history